Terminal Aerodrome Forecast
Issued by NWS

Home | Current Version | Previous Version | Text Only | Print | Product List | Glossary On
Versions: 1 2 3 4 5 6 7 8 9 10 11 12 13 14 15
027
FTUS42 TJSJ 211811 AAA
TAFJBQ
TAF AMD
TJBQ 211811Z 2118/2218 04008G17KT P6SM VCSH SCT035 SCT045 OVC060
     FM212000 04016KT P6SM VCSH FEW030 SCT045
     FM221300 34015G23KT P6SM FEW030 SCT060=

USA.gov is the U.S. government's official web portal to all federal, state and local government web resources and services.